sensor_id;sensor_type;location;lat;lon;timestamp;pressure;altitude;pressure_sealevel;temperature;humidity
57056;BME280;42945;51.718;5.324;2022-10-12T00:01:25;102342.81;;;3.94;100.00
57056;BME280;42945;51.718;5.324;2022-10-12T00:03:50;102319.28;;;3.75;100.00
57056;BME280;42945;51.718;5.324;2022-10-12T00:06:19;102262.41;;;3.78;100.00
57056;BME280;42945;51.718;5.324;2022-10-12T00:08:45;102325.41;;;3.81;100.00
57056;BME280;42945;51.718;5.324;2022-10-12T00:11:12;102325.47;;;3.68;100.00
57056;BME280;42945;51.718;5.324;2022-10-12T00:13:37;102307.97;;;3.66;100.00
57056;BME280;42945;51.718;5.324;2022-10-12T00:16:04;102311.47;;;3.68;100.00
57056;BME280;42945;51.718;5.324;2022-10-12T00:18:32;102392.69;;;3.92;100.00
57056;BME280;42945;51.718;5.324;2022-10-12T00:21:02;102362.16;;;3.70;100.00
57056;BME280;42945;51.718;5.324;2022-10-12T00:23:29;102385.72;;;3.85;100.00
57056;BME280;42945;51.718;5.324;2022-10-12T00:25:55;102352.50;;;3.84;100.00
57056;BME280;42945;51.718;5.324;2022-10-12T00:28:20;102304.44;;;3.70;100.00
57056;BME280;42945;51.718;5.324;2022-10-12T00:30:46;102353.38;;;3.82;100.00
57056;BME280;42945;51.718;5.324;2022-10-12T00:33:11;102261.00;;;3.15;100.00
57056;BME280;42945;51.718;5.324;2022-10-12T00:35:36;102336.78;;;3.77;100.00
57056;BME280;42945;51.718;5.324;2022-10-12T00:38:01;102327.13;;;3.82;100.00
57056;BME280;42945;51.718;5.324;2022-10-12T00:40:26;102358.59;;;3.86;100.00
57056;BME280;42945;51.718;5.324;2022-10-12T00:42:51;102331.50;;;3.83;100.00
57056;BME280;42945;51.718;5.324;2022-10-12T00:45:17;102332.31;;;3.89;100.00
57056;BME280;42945;51.718;5.324;2022-10-12T00:47:49;102215.53;;;3.19;100.00
57056;BME280;42945;51.718;5.324;2022-10-12T00:50:25;102331.44;;;3.93;100.00
57056;BME280;42945;51.718;5.324;2022-10-12T00:52:56;102302.63;;;3.86;100.00
57056;BME280;42945;51.718;5.324;2022-10-12T00:55:23;102374.28;;;4.03;100.00
57056;BME280;42945;51.718;5.324;2022-10-12T00:57:49;102242.56;;;3.35;100.00
57056;BME280;42945;51.718;5.324;2022-10-12T01:00:15;102325.41;;;3.81;100.00
57056;BME280;42945;51.718;5.324;2022-10-12T01:02:41;102305.13;;;4.03;100.00
57056;BME280;42945;51.718;5.324;2022-10-12T01:05:08;102298.16;;;3.97;100.00
57056;BME280;42945;51.718;5.324;2022-10-12T01:07:34;102333.19;;;3.96;100.00
57056;BME280;42945;51.718;5.324;2022-10-12T01:09:59;102313.00;;;4.04;100.00
57056;BME280;42945;51.718;5.324;2022-10-12T01:12:27;102327.81;;;4.13;100.00
57056;BME280;42945;51.718;5.324;2022-10-12T01:14:53;102290.91;;;4.28;100.00
57056;BME280;42945;51.718;5.324;2022-10-12T01:17:39;102302.38;;;4.23;100.00
57056;BME280;42945;51.718;5.324;2022-10-12T01:22:35;102273.44;;;4.26;100.00
57056;BME280;42945;51.718;5.324;2022-10-12T01:27:47;102312.91;;;4.17;100.00
57056;BME280;42945;51.718;5.324;2022-10-12T01:32:42;102274.38;;;4.20;100.00
57056;BME280;42945;51.718;5.324;2022-10-12T01:35:15;102378.94;;;4.80;100.00
57056;BME280;42945;51.718;5.324;2022-10-12T01:37:45;102309.41;;;4.14;100.00
57056;BME280;42945;51.718;5.324;2022-10-12T01:40:20;102333.84;;;4.26;100.00
57056;BME280;42945;51.718;5.324;2022-10-12T01:42:47;102208.38;;;3.55;100.00
57056;BME280;42945;51.718;5.324;2022-10-12T01:45:15;102309.31;;;4.30;100.00
57056;BME280;42945;51.718;5.324;2022-10-12T01:47:41;102353.03;;;4.36;100.00
57056;BME280;42945;51.718;5.324;2022-10-12T01:50:08;102291.75;;;4.35;100.00
57056;BME280;42945;51.718;5.324;2022-10-12T02:00:19;102313.03;;;3.98;100.00
57056;BME280;42945;51.718;5.324;2022-10-12T02:05:17;102244.81;;;3.95;100.00
57056;BME280;42945;51.718;5.324;2022-10-12T02:07:56;102239.50;;;4.03;100.00
57056;BME280;42945;51.718;5.324;2022-10-12T02:10:29;102292.03;;;3.98;100.00
57056;BME280;42945;51.718;5.324;2022-10-12T02:12:57;102165.69;;;3.30;100.00
57056;BME280;42945;51.718;5.324;2022-10-12T02:15:25;102250.09;;;3.87;100.00
57056;BME280;42945;51.718;5.324;2022-10-12T02:17:51;102303.44;;;3.92;100.00
57056;BME280;42945;51.718;5.324;2022-10-12T02:20:17;102128.06;;;3.35;100.00
57056;BME280;42945;51.718;5.324;2022-10-12T02:22:44;102285.06;;;3.94;100.00
57056;BME280;42945;51.718;5.324;2022-10-12T02:25:11;102242.22;;;3.89;100.00
57056;BME280;42945;51.718;5.324;2022-10-12T02:27:38;102289.56;;;3.75;100.00
57056;BME280;42945;51.718;5.324;2022-10-12T02:30:06;102277.22;;;3.91;100.00
57056;BME280;42945;51.718;5.324;2022-10-12T02:32:40;102255.41;;;3.83;100.00
57056;BME280;42945;51.718;5.324;2022-10-12T02:35:14;102274.59;;;3.91;100.00
57056;BME280;42945;51.718;5.324;2022-10-12T02:37:47;102140.53;;;2.93;100.00
57056;BME280;42945;51.718;5.324;2022-10-12T02:40:16;102216.94;;;3.79;100.00
57056;BME280;42945;51.718;5.324;2022-10-12T02:42:45;102290.38;;;3.86;100.00
57056;BME280;42945;51.718;5.324;2022-10-12T02:45:12;102230.13;;;3.69;100.00
57056;BME280;42945;51.718;5.324;2022-10-12T02:47:38;102307.88;;;3.86;100.00
57056;BME280;42945;51.718;5.324;2022-10-12T02:50:04;102256.34;;;3.69;100.00
57056;BME280;42945;51.718;5.324;2022-10-12T02:52:32;102289.56;;;3.72;100.00
57056;BME280;42945;51.718;5.324;2022-10-12T02:54:57;102286.94;;;3.77;100.00
57056;BME280;42945;51.718;5.324;2022-10-12T02:57:23;102247.72;;;3.49;100.00
57056;BME280;42945;51.718;5.324;2022-10-12T02:59:48;102232.88;;;3.51;100.00
57056;BME280;42945;51.718;5.324;2022-10-12T03:02:14;102233.56;;;3.76;100.00
57056;BME280;42945;51.718;5.324;2022-10-12T03:04:39;102283.50;;;3.68;100.00
57056;BME280;42945;51.718;5.324;2022-10-12T03:07:05;102274.75;;;3.63;100.00
57056;BME280;42945;51.718;5.324;2022-10-12T03:09:30;102227.56;;;3.60;100.00
57056;BME280;42945;51.718;5.324;2022-10-12T03:11:58;102036.94;;;2.26;100.00
57056;BME280;42945;51.718;5.324;2022-10-12T03:14:23;102263.44;;;3.53;100.00
57056;BME280;42945;51.718;5.324;2022-10-12T03:16:50;102118.75;;;2.84;100.00
57056;BME280;42945;51.718;5.324;2022-10-12T03:19:16;102090.88;;;2.70;100.00
57056;BME280;42945;51.718;5.324;2022-10-12T03:21:41;102181.38;;;3.33;100.00
57056;BME280;42945;51.718;5.324;2022-10-12T03:24:06;102211.13;;;3.32;100.00
57056;BME280;42945;51.718;5.324;2022-10-12T03:26:31;102206.81;;;3.19;100.00
57056;BME280;42945;51.718;5.324;2022-10-12T03:28:56;102093.56;;;2.55;100.00
57056;BME280;42945;51.718;5.324;2022-10-12T03:31:22;102207.78;;;3.01;100.00
57056;BME280;42945;51.718;5.324;2022-10-12T03:33:47;102208.66;;;2.90;100.00
57056;BME280;42945;51.718;5.324;2022-10-12T03:36:12;102285.53;;;2.99;100.00
57056;BME280;42945;51.718;5.324;2022-10-12T03:38:37;102261.09;;;2.95;100.00
57056;BME280;42945;51.718;5.324;2022-10-12T03:41:03;102250.59;;;2.93;100.00
57056;BME280;42945;51.718;5.324;2022-10-12T03:43:28;102272.38;;;3.09;100.00
57056;BME280;42945;51.718;5.324;2022-10-12T03:45:53;102249.72;;;2.99;100.00
57056;BME280;42945;51.718;5.324;2022-10-12T03:48:18;102234.88;;;2.92;100.00
57056;BME280;42945;51.718;5.324;2022-10-12T03:50:50;102252.34;;;3.01;100.00
57056;BME280;42945;51.718;5.324;2022-10-12T03:53:15;102274.19;;;2.83;100.00
57056;BME280;42945;51.718;5.324;2022-10-12T03:55:41;102098.94;;;2.07;100.00
57056;BME280;42945;51.718;5.324;2022-10-12T03:58:06;102183.41;;;2.75;100.00
57056;BME280;42945;51.718;5.324;2022-10-12T04:00:31;102128.59;;;2.12;100.00
57056;BME280;42945;51.718;5.324;2022-10-12T04:02:57;102192.97;;;2.87;100.00
57056;BME280;42945;51.718;5.324;2022-10-12T04:05:22;102201.75;;;2.74;100.00
57056;BME280;42945;51.718;5.324;2022-10-12T04:07:47;102098.94;;;2.01;100.00
57056;BME280;42945;51.718;5.324;2022-10-12T04:10:12;102204.38;;;2.71;100.00
57056;BME280;42945;51.718;5.324;2022-10-12T04:12:38;102232.34;;;2.72;100.00
57056;BME280;42945;51.718;5.324;2022-10-12T04:15:03;102194.81;;;2.58;100.00
57056;BME280;42945;51.718;5.324;2022-10-12T04:17:28;102269.00;;;2.67;100.00
57056;BME280;42945;51.718;5.324;2022-10-12T04:19:54;102105.94;;;1.99;100.00
57056;BME280;42945;51.718;5.324;2022-10-12T04:22:19;102243.69;;;2.62;100.00
57056;BME280;42945;51.718;5.324;2022-10-12T04:24:44;102241.94;;;2.65;100.00
57056;BME280;42945;51.718;5.324;2022-10-12T04:27:10;102235.78;;;2.77;100.00
57056;BME280;42945;51.718;5.324;2022-10-12T04:29:36;102068.44;;;1.95;100.00
57056;BME280;42945;51.718;5.324;2022-10-12T04:32:01;102234.97;;;2.60;100.00
57056;BME280;42945;51.718;5.324;2022-10-12T04:34:26;102112.06;;;1.72;100.00
57056;BME280;42945;51.718;5.324;2022-10-12T04:36:51;102160.81;;;2.47;100.00
57056;BME280;42945;51.718;5.324;2022-10-12T04:39:16;102065.00;;;1.76;100.00
57056;BME280;42945;51.718;5.324;2022-10-12T04:41:42;102211.38;;;2.67;100.00
57056;BME280;42945;51.718;5.324;2022-10-12T04:44:07;102081.53;;;1.99;100.00
57056;BME280;42945;51.718;5.324;2022-10-12T04:46:32;102212.25;;;2.68;100.00
57056;BME280;42945;51.718;5.324;2022-10-12T04:48:58;102085.88;;;1.86;100.00
57056;BME280;42945;51.718;5.324;2022-10-12T04:51:26;102249.84;;;2.56;100.00
57056;BME280;42945;51.718;5.324;2022-10-12T04:53:51;102214.03;;;2.49;100.00
57056;BME280;42945;51.718;5.324;2022-10-12T04:56:17;102268.16;;;2.45;100.00
57056;BME280;42945;51.718;5.324;2022-10-12T04:58:42;102233.22;;;2.60;100.00
57056;BME280;42945;51.718;5.324;2022-10-12T05:01:07;102235.81;;;2.71;100.00
57056;BME280;42945;51.718;5.324;2022-10-12T05:03:33;102236.69;;;2.65;100.00
57056;BME280;42945;51.718;5.324;2022-10-12T05:05:58;102189.59;;;2.50;100.00
57056;BME280;42945;51.718;5.324;2022-10-12T05:08:23;102228.88;;;2.51;100.00
57056;BME280;42945;51.718;5.324;2022-10-12T05:10:48;102221.03;;;2.36;100.00
57056;BME280;42945;51.718;5.324;2022-10-12T05:13:14;102177.38;;;2.47;100.00
57056;BME280;42945;51.718;5.324;2022-10-12T05:15:40;102196.59;;;2.46;100.00
57056;BME280;42945;51.718;5.324;2022-10-12T05:18:06;102101.63;;;1.84;100.00
57056;BME280;42945;51.718;5.324;2022-10-12T05:20:31;102224.50;;;2.46;100.00
57056;BME280;42945;51.718;5.324;2022-10-12T05:22:56;102173.88;;;2.53;100.00
57056;BME280;42945;51.718;5.324;2022-10-12T05:25:22;102204.44;;;2.42;100.00
57056;BME280;42945;51.718;5.324;2022-10-12T05:27:47;102173.06;;;2.31;100.00
57056;BME280;42945;51.718;5.324;2022-10-12T05:30:12;102196.63;;;2.39;100.00
57056;BME280;42945;51.718;5.324;2022-10-12T05:32:37;102173.03;;;2.42;100.00
57056;BME280;42945;51.718;5.324;2022-10-12T05:35:03;102205.34;;;2.39;100.00
57056;BME280;42945;51.718;5.324;2022-10-12T05:37:28;102228.00;;;2.52;100.00
57056;BME280;42945;51.718;5.324;2022-10-12T05:39:54;102256.78;;;2.63;100.00
57056;BME280;42945;51.718;5.324;2022-10-12T05:42:19;102221.91;;;2.43;100.00
57056;BME280;42945;51.718;5.324;2022-10-12T05:44:44;102202.66;;;2.62;100.00
57056;BME280;42945;51.718;5.324;2022-10-12T05:47:09;102225.38;;;2.55;100.00
57056;BME280;42945;51.718;5.324;2022-10-12T05:49:34;102195.72;;;2.49;100.00
57056;BME280;42945;51.718;5.324;2022-10-12T05:52:00;102229.72;;;2.60;100.00
57056;BME280;42945;51.718;5.324;2022-10-12T05:54:25;102221.88;;;2.60;100.00
57056;BME280;42945;51.718;5.324;2022-10-12T05:56:50;102190.44;;;2.64;100.00
57056;BME280;42945;51.718;5.324;2022-10-12T05:59:15;102154.69;;;2.43;100.00
57056;BME280;42945;51.718;5.324;2022-10-12T06:01:41;102186.94;;;2.59;100.00
57056;BME280;42945;51.718;5.324;2022-10-12T06:04:06;102162.47;;;2.63;100.00
57056;BME280;42945;51.718;5.324;2022-10-12T06:06:31;101953.47;;;1.35;100.00
57056;BME280;42945;51.718;5.324;2022-10-12T06:08:56;102177.25;;;2.87;100.00
57056;BME280;42945;51.718;5.324;2022-10-12T06:11:21;102264.53;;;3.06;100.00
57056;BME280;42945;51.718;5.324;2022-10-12T06:13:46;102213.91;;;2.93;100.00
57056;BME280;42945;51.718;5.324;2022-10-12T06:16:12;102054.34;;;2.41;100.00
57056;BME280;42945;51.718;5.324;2022-10-12T06:18:37;102053.44;;;2.47;100.00
57056;BME280;42945;51.718;5.324;2022-10-12T06:21:03;102105.81;;;2.47;100.00
57056;BME280;42945;51.718;5.324;2022-10-12T06:23:28;102147.44;;;3.13;100.00
57056;BME280;42945;51.718;5.324;2022-10-12T06:25:53;102075.19;;;2.66;100.00
57056;BME280;42945;51.718;5.324;2022-10-12T06:28:19;102168.97;;;3.58;100.00
57056;BME280;42945;51.718;5.324;2022-10-12T06:30:44;102100.38;;;2.88;100.00
57056;BME280;42945;51.718;5.324;2022-10-12T06:33:10;102061.06;;;2.90;100.00
57056;BME280;42945;51.718;5.324;2022-10-12T06:35:35;102151.50;;;3.57;100.00
57056;BME280;42945;51.718;5.324;2022-10-12T06:38:00;102049.56;;;3.11;100.00
57056;BME280;42945;51.718;5.324;2022-10-12T06:40:25;102171.44;;;3.80;100.00
57056;BME280;42945;51.718;5.324;2022-10-12T06:42:51;102209.03;;;3.82;100.00
57056;BME280;42945;51.718;5.324;2022-10-12T06:45:16;102183.63;;;3.90;100.00
57056;BME280;42945;51.718;5.324;2022-10-12T06:47:41;102182.69;;;3.96;100.00
57056;BME280;42945;51.718;5.324;2022-10-12T06:50:07;102235.22;;;3.92;100.00
57056;BME280;42945;51.718;5.324;2022-10-12T06:52:32;102184.44;;;3.95;100.00
57056;BME280;42945;51.718;5.324;2022-10-12T06:54:58;102052.94;;;3.25;100.00
57056;BME280;42945;51.718;5.324;2022-10-12T06:57:23;102156.38;;;4.02;100.00
57056;BME280;42945;51.718;5.324;2022-10-12T06:59:48;102126.59;;;4.04;100.00
57056;BME280;42945;51.718;5.324;2022-10-12T07:02:13;102201.81;;;4.13;100.00
57056;BME280;42945;51.718;5.324;2022-10-12T07:04:39;102181.66;;;4.10;100.00
57056;BME280;42945;51.718;5.324;2022-10-12T07:07:04;102158.78;;;4.25;100.00
57056;BME280;42945;51.718;5.324;2022-10-12T07:09:29;102206.03;;;4.26;100.00
57056;BME280;42945;51.718;5.324;2022-10-12T07:11:54;102196.34;;;4.33;100.00
57056;BME280;42945;51.718;5.324;2022-10-12T07:14:19;102219.91;;;4.39;100.00
57056;BME280;42945;51.718;5.324;2022-10-12T07:16:45;102178.81;;;4.35;100.00
57056;BME280;42945;51.718;5.324;2022-10-12T07:19:11;102055.09;;;3.79;100.00
57056;BME280;42945;51.718;5.324;2022-10-12T07:21:36;102040.28;;;3.77;100.00
57056;BME280;42945;51.718;5.324;2022-10-12T07:24:01;102193.41;;;4.62;100.00
57056;BME280;42945;51.718;5.324;2022-10-12T07:26:26;102049.53;;;4.11;100.00
57056;BME280;42945;51.718;5.324;2022-10-12T07:28:52;102180.94;;;4.83;100.00
57056;BME280;42945;51.718;5.324;2022-10-12T07:31:17;102204.50;;;4.90;100.00
57056;BME280;42945;51.718;5.324;2022-10-12T07:33:42;102199.84;;;5.11;100.00
57056;BME280;42945;51.718;5.324;2022-10-12T07:36:07;102173.44;;;5.17;100.00
57056;BME280;42945;51.718;5.324;2022-10-12T07:38:33;102177.72;;;5.26;100.00
57056;BME280;42945;51.718;5.324;2022-10-12T07:40:58;102065.63;;;4.53;100.00
57056;BME280;42945;51.718;5.324;2022-10-12T07:43:24;102198.78;;;5.24;100.00
57056;BME280;42945;51.718;5.324;2022-10-12T07:45:49;102216.16;;;5.35;100.00
57056;BME280;42945;51.718;5.324;2022-10-12T07:48:17;102047.22;;;4.58;100.00
57056;BME280;42945;51.718;5.324;2022-10-12T07:50:46;102033.31;;;4.48;100.00
57056;BME280;42945;51.718;5.324;2022-10-12T07:53:11;102156.69;;;5.26;100.00
57056;BME280;42945;51.718;5.324;2022-10-12T07:55:37;102188.03;;;5.41;100.00
57056;BME280;42945;51.718;5.324;2022-10-12T07:58:02;102160.91;;;5.38;100.00
57056;BME280;42945;51.718;5.324;2022-10-12T08:00:30;102236.91;;;5.58;100.00
57056;BME280;42945;51.718;5.324;2022-10-12T08:02:56;102173.03;;;5.46;100.00
57056;BME280;42945;51.718;5.324;2022-10-12T08:05:21;102208.13;;;5.47;100.00
57056;BME280;42945;51.718;5.324;2022-10-12T08:07:47;102180.63;;;5.66;100.00
57056;BME280;42945;51.718;5.324;2022-10-12T08:10:12;102157.69;;;5.75;100.00
57056;BME280;42945;51.718;5.324;2022-10-12T08:12:38;102218.38;;;5.65;100.00
57056;BME280;42945;51.718;5.324;2022-10-12T08:15:03;102175.41;;;5.65;100.00
57056;BME280;42945;51.718;5.324;2022-10-12T08:17:29;102187.41;;;5.81;100.00
57056;BME280;42945;51.718;5.324;2022-10-12T08:19:54;102058.75;;;5.08;100.00
57056;BME280;42945;51.718;5.324;2022-10-12T08:22:19;102117.00;;;5.40;100.00
57056;BME280;42945;51.718;5.324;2022-10-12T08:24:45;102195.66;;;6.16;100.00
57056;BME280;42945;51.718;5.324;2022-10-12T08:27:10;102206.91;;;6.25;100.00
57056;BME280;42945;51.718;5.324;2022-10-12T08:29:35;102058.19;;;5.95;100.00
57056;BME280;42945;51.718;5.324;2022-10-12T08:32:00;102167.81;;;6.47;100.00
57056;BME280;42945;51.718;5.324;2022-10-12T08:34:26;102201.66;;;6.70;100.00
57056;BME280;42945;51.718;5.324;2022-10-12T08:36:51;102031.69;;;6.04;100.00
57056;BME280;42945;51.718;5.324;2022-10-12T08:39:16;102211.75;;;6.94;100.00
57056;BME280;42945;51.718;5.324;2022-10-12T08:47:02;102098.81;;;6.72;100.00
57056;BME280;42945;51.718;5.324;2022-10-12T08:49:29;102177.56;;;7.67;100.00
57056;BME280;42945;51.718;5.324;2022-10-12T08:51:55;102155.38;;;7.76;99.99
57056;BME280;42945;51.718;5.324;2022-10-12T08:54:27;102139.22;;;7.88;99.29
57056;BME280;42945;51.718;5.324;2022-10-12T08:56:53;102143.03;;;8.11;96.97
57056;BME280;42945;51.718;5.324;2022-10-12T08:59:19;102149.31;;;8.06;98.04
57056;BME280;42945;51.718;5.324;2022-10-12T09:01:56;102181.59;;;8.18;96.90
57056;BME280;42945;51.718;5.324;2022-10-12T09:04:31;102152.69;;;8.46;96.69
57056;BME280;42945;51.718;5.324;2022-10-12T09:14:50;102074.19;;;8.15;93.68
57056;BME280;42945;51.718;5.324;2022-10-12T09:17:21;102197.28;;;8.90;92.37
57056;BME280;42945;51.718;5.324;2022-10-12T09:19:58;102188.69;;;8.81;90.71
57056;BME280;42945;51.718;5.324;2022-10-12T09:22:24;102233.47;;;8.89;91.21
57056;BME280;42945;51.718;5.324;2022-10-12T09:24:52;102076.44;;;8.29;89.60
57056;BME280;42945;51.718;5.324;2022-10-12T09:27:18;102070.38;;;8.25;89.34
57056;BME280;42945;51.718;5.324;2022-10-12T09:29:44;102196.13;;;9.00;91.00
57056;BME280;42945;51.718;5.324;2022-10-12T09:32:14;102182.25;;;9.21;89.75
57056;BME280;42945;51.718;5.324;2022-10-12T09:34:44;102182.38;;;9.17;89.34
57056;BME280;42945;51.718;5.324;2022-10-12T09:37:11;102195.56;;;9.18;88.86
57056;BME280;42945;51.718;5.324;2022-10-12T09:39:40;102064.00;;;8.64;89.01
57056;BME280;42945;51.718;5.324;2022-10-12T09:42:07;102129.47;;;9.43;88.68
57056;BME280;42945;51.718;5.324;2022-10-12T09:44:37;102164.50;;;9.52;87.36
57056;BME280;42945;51.718;5.324;2022-10-12T09:47:06;102152.41;;;9.71;87.38
57056;BME280;42945;51.718;5.324;2022-10-12T09:49:49;102179.41;;;9.82;87.09
57056;BME280;42945;51.718;5.324;2022-10-12T09:52:16;102056.22;;;9.17;85.29
57056;BME280;42945;51.718;5.324;2022-10-12T09:54:49;102206.47;;;10.19;86.02
57056;BME280;42945;51.718;5.324;2022-10-12T09:57:20;102218.09;;;10.15;84.72
57056;BME280;42945;51.718;5.324;2022-10-12T09:59:46;102189.81;;;10.42;84.59
57056;BME280;42945;51.718;5.324;2022-10-12T10:02:14;102105.94;;;10.39;84.56
57056;BME280;42945;51.718;5.324;2022-10-12T10:04:40;102154.44;;;10.67;84.28
57056;BME280;42945;51.718;5.324;2022-10-12T10:09:44;102108.97;;;10.27;83.05
57056;BME280;42945;51.718;5.324;2022-10-12T10:12:19;102160.28;;;10.26;82.98
57056;BME280;42945;51.718;5.324;2022-10-12T10:14:46;102120.28;;;10.57;82.15
57056;BME280;42945;51.718;5.324;2022-10-12T10:17:14;102008.63;;;10.16;82.46
57056;BME280;42945;51.718;5.324;2022-10-12T10:19:47;102065.34;;;10.37;82.39
57056;BME280;42945;51.718;5.324;2022-10-12T10:22:13;102112.28;;;11.04;81.89
57056;BME280;42945;51.718;5.324;2022-10-12T10:24:41;102038.81;;;10.12;81.58
57056;BME280;42945;51.718;5.324;2022-10-12T10:27:25;102166.94;;;10.63;81.55
57056;BME280;42945;51.718;5.324;2022-10-12T10:29:52;102058.47;;;10.07;80.78
57056;BME280;42945;51.718;5.324;2022-10-12T10:32:34;102142.88;;;10.91;81.80
57056;BME280;42945;51.718;5.324;2022-10-12T10:35:16;102162.44;;;10.89;80.90
57056;BME280;42945;51.718;5.324;2022-10-12T10:37:49;102050.19;;;10.16;81.07
57056;BME280;42945;51.718;5.324;2022-10-12T10:40:25;102141.72;;;10.98;81.84
57056;BME280;42945;51.718;5.324;2022-10-12T10:42:55;102029.56;;;10.71;81.01
57056;BME280;42945;51.718;5.324;2022-10-12T10:45:25;102156.16;;;11.15;81.43
57056;BME280;42945;51.718;5.324;2022-10-12T10:47:51;102045.41;;;10.73;81.16
57056;BME280;42945;51.718;5.324;2022-10-12T10:50:31;102167.88;;;11.53;80.85
57056;BME280;42945;51.718;5.324;2022-10-12T10:58:29;102136.97;;;11.73;79.73
57056;BME280;42945;51.718;5.324;2022-10-12T11:00:57;102120.31;;;11.69;78.52
57056;BME280;42945;51.718;5.324;2022-10-12T11:03:29;102107.97;;;11.89;77.52
57056;BME280;42945;51.718;5.324;2022-10-12T11:06:08;102095.97;;;12.00;77.50
57056;BME280;42945;51.718;5.324;2022-10-12T11:08:42;102083.72;;;12.17;77.10
57056;BME280;42945;51.718;5.324;2022-10-12T11:11:10;102093.16;;;12.24;77.49
57056;BME280;42945;51.718;5.324;2022-10-12T11:13:38;102121.97;;;12.54;75.48
57056;BME280;42945;51.718;5.324;2022-10-12T11:21:37;102119.22;;;12.36;75.85
57056;BME280;42945;51.718;5.324;2022-10-12T11:24:12;102073.09;;;12.17;73.69
57056;BME280;42945;51.718;5.324;2022-10-12T11:29:07;102019.56;;;12.44;72.87
57056;BME280;42945;51.718;5.324;2022-10-12T11:31:37;102052.72;;;12.74;72.45
57056;BME280;42945;51.718;5.324;2022-10-12T11:34:04;102108.59;;;13.12;72.44
57056;BME280;42945;51.718;5.324;2022-10-12T11:36:31;102031.09;;;12.99;73.21
57056;BME280;42945;51.718;5.324;2022-10-12T11:38:57;101926.00;;;11.96;72.86
57056;BME280;42945;51.718;5.324;2022-10-12T11:41:30;102036.81;;;12.73;73.70
57056;BME280;42945;51.718;5.324;2022-10-12T11:44:20;101931.63;;;12.28;73.71
57056;BME280;42945;51.718;5.324;2022-10-12T11:46:48;101905.97;;;12.08;71.50
57056;BME280;42945;51.718;5.324;2022-10-12T11:49:22;102055.94;;;12.81;73.19
57056;BME280;42945;51.718;5.324;2022-10-12T11:51:50;102037.34;;;12.98;73.20
57056;BME280;42945;51.718;5.324;2022-10-12T11:54:23;102071.00;;;13.01;73.48
57056;BME280;42945;51.718;5.324;2022-10-12T11:56:51;102038.16;;;13.54;72.20
57056;BME280;42945;51.718;5.324;2022-10-12T11:59:24;102038.22;;;13.88;70.92
57056;BME280;42945;51.718;5.324;2022-10-12T12:04:35;102027.72;;;12.96;71.35
57056;BME280;42945;51.718;5.324;2022-10-12T12:17:31;102000.00;;;13.36;71.54
57056;BME280;42945;51.718;5.324;2022-10-12T12:19:53;102042.13;;;13.28;70.15
57056;BME280;42945;51.718;5.324;2022-10-12T12:22:32;102038.94;;;13.56;70.34
57056;BME280;42945;51.718;5.324;2022-10-12T12:27:43;101924.41;;;13.55;67.77
57056;BME280;42945;51.718;5.324;2022-10-12T12:32:45;102053.00;;;13.77;68.39
57056;BME280;42945;51.718;5.324;2022-10-12T12:37:42;102012.59;;;13.85;67.46
57056;BME280;42945;51.718;5.324;2022-10-12T12:40:16;102025.91;;;13.85;68.49
57056;BME280;42945;51.718;5.324;2022-10-12T12:42:44;101961.72;;;14.06;67.33
57056;BME280;42945;51.718;5.324;2022-10-12T12:47:54;102003.56;;;14.21;64.62
57056;BME280;42945;51.718;5.324;2022-10-12T12:50:35;101998.97;;;14.07;66.91
57056;BME280;42945;51.718;5.324;2022-10-12T12:53:03;101865.09;;;13.51;65.03
57056;BME280;42945;51.718;5.324;2022-10-12T12:55:34;101997.78;;;14.13;65.39
57056;BME280;42945;51.718;5.324;2022-10-12T12:58:14;101997.00;;;14.27;65.59
57056;BME280;42945;51.718;5.324;2022-10-12T13:03:42;101985.25;;;13.97;65.90
57056;BME280;42945;51.718;5.324;2022-10-12T13:09:11;101910.03;;;13.24;66.44
57056;BME280;42945;51.718;5.324;2022-10-12T13:11:42;101944.66;;;13.92;66.81
57056;BME280;42945;51.718;5.324;2022-10-12T13:19:12;101988.44;;;14.37;65.28
57056;BME280;42945;51.718;5.324;2022-10-12T13:21:40;101988.66;;;13.84;66.32
57056;BME280;42945;51.718;5.324;2022-10-12T13:26:55;101836.28;;;13.42;66.43
57056;BME280;42945;51.718;5.324;2022-10-12T13:29:35;101883.00;;;13.49;66.18
57056;BME280;42945;51.718;5.324;2022-10-12T13:32:09;101970.50;;;14.08;66.63
57056;BME280;42945;51.718;5.324;2022-10-12T13:34:42;101998.38;;;14.02;66.10
57056;BME280;42945;51.718;5.324;2022-10-12T13:37:13;101957.69;;;13.81;64.77
57056;BME280;42945;51.718;5.324;2022-10-12T13:39:42;101833.47;;;13.10;63.69
57056;BME280;42945;51.718;5.324;2022-10-12T13:42:15;101934.00;;;13.92;63.69
57056;BME280;42945;51.718;5.324;2022-10-12T13:44:41;101943.09;;;13.88;64.05
57056;BME280;42945;51.718;5.324;2022-10-12T13:49:52;101939.31;;;13.92;64.51
57056;BME280;42945;51.718;5.324;2022-10-12T13:52:18;101929.03;;;14.02;64.91
57056;BME280;42945;51.718;5.324;2022-10-12T13:54:46;101952.53;;;13.78;66.27
57056;BME280;42945;51.718;5.324;2022-10-12T13:57:22;101971.78;;;14.01;65.12
57056;BME280;42945;51.718;5.324;2022-10-12T13:59:55;101922.28;;;13.95;64.87
57056;BME280;42945;51.718;5.324;2022-10-12T14:02:26;101974.03;;;14.08;64.57
57056;BME280;42945;51.718;5.324;2022-10-12T14:04:52;101819.19;;;13.46;65.09
57056;BME280;42945;51.718;5.324;2022-10-12T14:07:23;101807.00;;;13.58;63.20
57056;BME280;42945;51.718;5.324;2022-10-12T14:09:54;101851.25;;;13.61;75.98
57056;BME280;42945;51.718;5.324;2022-10-12T14:12:23;101947.47;;;14.38;65.28
57056;BME280;42945;51.718;5.324;2022-10-12T14:14:48;101906.81;;;14.49;63.77
57056;BME280;42945;51.718;5.324;2022-10-12T14:17:17;101923.53;;;14.37;64.59
57056;BME280;42945;51.718;5.324;2022-10-12T14:19:52;101872.50;;;14.11;63.60